• Join FlightAware (Why Join?)
  • Login
  • US Flag 
07:03PM EST


 

Airport Tracker/Info


-or-


 

Live Flight TrackerFlight Track Log ✈ WIG1043 ✈ 15-Apr-2014 ✈ KBGR - KMHT

Flight Track Log - Related Links

Times and Time Zones

All times are in EDT time to prevent confusion due to time zone crossing. See the WIG1043 flight status page for this flight to view local times or setup timezone preferences in your user account.

Time Position Orientation Groundspeed Altitude Reporting Facility
EDT Latitude Longitude Course Direction KTS MPH feet Rate Location/Type
07:54PM 44.7461 -68.8103 226° Southwest 92 106 3,900  Level Boston Center
07:55PM 44.7253 -68.8500 234° Southwest 113 130 4,000  Climbing Boston Center
07:56PM 44.7008 -68.8894 229° Southwest 124 143 4,000  Level Boston Center
07:57PM 44.6845 -68.9816 227° Southwest  Level FlightAware Approximate
07:57PM 44.6717 -68.9239 220° Southwest 130 150 4,100  Level Boston Center
07:58PM 44.6651 -69.0189 226° Southwest  Level FlightAware Approximate
07:58PM 44.6406 -68.9553 216° Southwest 135 155 4,100  Level Boston Center
07:59PM 44.6423 -69.0522 226° Southwest  Level FlightAware Approximate
07:59PM 44.6153 -68.9986 231° Southwest 137 158 4,000  Level Boston Center
08:00PM 44.5906 -69.0419 231° Southwest 139 160 4,000  Level Boston Center
08:01PM 44.5658 -69.0847 231° Southwest 139 160 4,000  Level Boston Center
08:02PM 44.5400 -69.1239 227° Southwest 139 160 4,000  Level Boston Center
08:03PM 44.5136 -69.1639 227° Southwest 139 160 4,000  Level Boston Center
08:04PM 44.4867 -69.2014 225° Southwest 139 160 4,100  Climbing Boston Center
08:05PM 44.4597 -69.2375 224° Southwest 138 159 4,000 -60 Descending Boston Center
08:06PM 44.4333 -69.2789 228° Southwest 138 159 4,000  Level Boston Center
08:07PM 44.4067 -69.3197 228° Southwest 138 159 4,000  Level Boston Center
08:08PM 44.3800 -69.3586 226° Southwest 138 159 4,000  Level Boston Center
08:09PM 44.3533 -69.3958 225° Southwest 138 159 4,000  Level Boston Center
08:10PM 44.3200 -69.4367 221° Southwest 138 159 4,000  Level Boston Center
08:11PM 44.2942 -69.4758 227° Southwest 137 158 4,000  Level Boston Center
08:12PM 44.2703 -69.5186 232° Southwest 137 158 4,100  Climbing Boston Center
08:13PM 44.2447 -69.5614 230° Southwest 138 159 4,100 -60 Level Boston Center
08:14PM 44.2172 -69.6017 226° Southwest 139 160 4,000 -60 Descending Boston Center
08:15PM 44.1886 -69.6417 225° Southwest 141 162 4,000  Level Boston Center
08:16PM 44.1600 -69.6828 226° Southwest 143 165 4,000  Level Boston Center
08:17PM 44.1331 -69.7231 227° Southwest 143 165 4,000  Level Boston Center
08:18PM 44.1050 -69.7625 225° Southwest 144 166 4,100  Climbing Boston Center
08:19PM 44.0758 -69.8008 223° Southwest 143 165 4,100 -60 Level Boston Center
08:20PM 44.0481 -69.8442 228° Southwest 143 165 4,000 -60 Descending Boston Center
08:21PM 44.0208 -69.8867 228° Southwest 144 166 4,000  Level Boston Center
08:22PM 43.9928 -69.9247 224° Southwest 144 166 4,000  Level Boston Center
08:23PM 43.9675 -69.9669 230° Southwest 143 165 4,000  Level Boston Center
08:24PM 43.9383 -70.0028 222° Southwest 141 162 4,000  Level Boston Center
08:25PM 43.9100 -70.0464 228° Southwest 141 162 4,000  Level Boston Center
08:26PM 43.8853 -70.0886 231° Southwest 140 161 4,000  Level Boston Center
08:27PM 43.8594 -70.1297 229° Southwest 140 161 4,000  Level Boston Center
08:28PM 43.8303 -70.1653 221° Southwest 139 160 4,000  Level Boston Center
08:29PM 43.8064 -70.2053 230° Southwest 137 158 4,000  Level Boston Center
08:30PM 43.7792 -70.2431 225° Southwest 137 158 4,000  Level Boston Center
08:31PM 43.7522 -70.2808 225° Southwest 137 158 4,000  Level Boston Center
08:32PM 43.7272 -70.3192 228° Southwest 137 158 4,100  Climbing Boston Center
08:33PM 43.6972 -70.3592 224° Southwest 137 158 4,000 -60 Descending Boston Center
08:34PM 43.6711 -70.3986 228° Southwest 138 159 4,000  Level Boston Center
08:35PM 43.6450 -70.4369 227° Southwest 138 159 4,000  Level Boston Center
08:36PM 43.6186 -70.4767 227° Southwest 139 160 4,100  Climbing Boston Center
08:37PM 43.5925 -70.5172 228° Southwest 140 161 4,000 -60 Descending Boston Center
08:38PM 43.5650 -70.5561 226° Southwest 141 162 4,000  Level Boston Center
08:39PM 43.5353 -70.5983 226° Southwest 142 163 4,000  Level Boston Center
08:41PM 43.5075 -70.6383 226° Southwest 142 163 4,000  Level Boston Center
08:42PM 43.4736 -70.6711 215° Southwest 144 166 4,000  Level Boston Center
08:43PM 43.4392 -70.7039 215° Southwest 147 169 4,000  Level Boston Center
08:44PM 43.4064 -70.7361 216° Southwest 147 169 4,100  Climbing Boston Center
08:45PM 43.3689 -70.7633 208° Southwest 149 171 4,000  Descending Boston Center
08:46PM 43.3297 -70.7942 210° Southwest 149 171 4,100  Climbing Boston Center
08:47PM 43.2964 -70.8292 217° Southwest 150 173 4,000  Descending Boston Center
08:48PM 43.2614 -70.8619 214° Southwest 150 173 4,100  Climbing Boston Center
08:49PM 43.2253 -70.8917 211° Southwest 151 174 4,000 -60 Descending Boston Center
08:50PM 43.1889 -70.9303 218° Southwest 162 186 4,000  Level Boston Center
08:51PM 43.1522 -70.9692 218° Southwest 165 190 4,000  Level Boston Center
08:52PM 43.1119 -71.0058 214° Southwest 164 189 4,000  Level Boston Center
08:53PM 43.0753 -71.0403 214° Southwest 163 188 4,000  Level Boston Center
08:54PM 43.0372 -71.0744 213° Southwest 163 188 4,000  Level Boston Center
08:55PM 43.0003 -71.1097 215° Southwest 163 188 4,000  Level Boston Center
08:56PM 42.9625 -71.1447 214° Southwest 163 188 4,000  Level Boston Center
08:57PM 42.9228 -71.1778 211° Southwest 164 189 4,000  Level Boston Center
08:58PM 42.8739 -71.1769 179° South 167 192 4,100  Climbing Boston Center
08:59PM 42.8300 -71.1767 180° South 161 185 4,000 -480 Descending Boston Center
09:00PM 42.7903 -71.2083 210° Southwest 165 190 3,200 -600 Descending Boston Center
09:01PM 42.7608 -71.2556 230° Southwest 164 189 2,900 -600 Descending Boston Center
09:02PM 42.7583 -71.3097 266° West 158 182 2,100 -480 Descending Boston Center
09:03PM 42.7836 -71.3436 315° West 138 159 2,000 -60 Descending Boston Center
09:04PM 42.8158 -71.3642 335° Northwest 121 139 2,000  Level Boston Center
09:05PM 42.8439 -71.3803 337° Northwest 116 133 2,000 -300 Level Boston Center
09:06PM 42.8697 -71.3958 336° Northwest 103 119 1,500 -600 Descending Boston Center
09:07PM 42.8936 -71.4092 338° Northwest 96 110 900 -600 Descending Boston Center
09:08PM 42.9164 -71.4222 337° Northwest 102 117 400 -540 Descending Boston Center